createdAt,value
2019-01-18T00:00:10.234Z,1.40
2019-01-18T00:02:38.774Z,1.40
2019-01-18T00:05:07.775Z,1.40
2019-01-18T00:07:36.310Z,1.40
2019-01-18T00:10:09.562Z,1.30
2019-01-18T00:12:38.096Z,1.30
2019-01-18T00:15:10.926Z,1.30
2019-01-18T00:17:39.433Z,1.30
2019-01-18T00:20:13.546Z,1.20
2019-01-18T00:22:42.221Z,1.20
2019-01-18T00:25:10.770Z,1.20
2019-01-18T00:27:39.229Z,1.20
2019-01-18T00:30:10.789Z,1.10
2019-01-18T00:32:39.331Z,1.10
2019-01-18T00:35:08.032Z,1.00
2019-01-18T00:37:36.569Z,1.00
2019-01-18T00:40:08.197Z,1.00
2019-01-18T00:42:37.506Z,1.00
2019-01-18T00:45:09.732Z,1.00
2019-01-18T00:47:38.270Z,0.90
2019-01-18T00:50:09.895Z,0.90
2019-01-18T00:52:38.502Z,0.90
2019-01-18T00:55:07.750Z,0.90
2019-01-18T00:57:36.278Z,0.90
2019-01-18T01:00:13.789Z,0.90
2019-01-18T01:02:42.330Z,0.80
2019-01-18T01:05:11.027Z,0.80
2019-01-18T01:07:39.630Z,0.80
2019-01-18T01:10:10.765Z,0.70
2019-01-18T01:12:39.297Z,0.70
2019-01-18T01:15:12.085Z,0.70
2019-01-18T01:17:41.168Z,0.70
2019-01-18T01:20:11.729Z,0.70
2019-01-18T01:22:40.353Z,0.60
2019-01-18T01:25:10.358Z,0.60
2019-01-18T01:27:39.400Z,0.50
2019-01-18T01:30:11.002Z,0.50
2019-01-18T01:32:39.566Z,0.50
2019-01-18T01:35:08.346Z,0.40
2019-01-18T01:37:36.973Z,0.40
2019-01-18T01:40:08.515Z,0.40
2019-01-18T01:42:37.079Z,0.40
2019-01-18T01:45:08.053Z,0.30
2019-01-18T01:47:36.658Z,0.30
2019-01-18T01:50:08.533Z,0.30
2019-01-18T01:52:37.093Z,0.30
2019-01-18T01:55:06.741Z,0.20
2019-01-18T01:57:35.309Z,0.30
2019-01-18T02:00:15.409Z,0.20
2019-01-18T02:02:44.034Z,0.20
2019-01-18T02:05:12.666Z,0.20
2019-01-18T02:07:41.349Z,0.20
2019-01-18T02:10:12.218Z,0.20
2019-01-18T02:12:40.851Z,0.20
2019-01-18T02:15:12.134Z,0.20
2019-01-18T02:17:40.765Z,0.20
2019-01-18T02:20:12.437Z,0.20
2019-01-18T02:22:41.069Z,0.30
2019-01-18T02:25:09.941Z,0.20
2019-01-18T02:27:38.836Z,0.30
2019-01-18T02:30:11.120Z,0.30
2019-01-18T02:32:39.746Z,0.30
2019-01-18T02:35:08.517Z,0.30
2019-01-18T02:37:37.074Z,0.30
2019-01-18T02:40:09.040Z,0.30
2019-01-18T02:42:37.597Z,0.30
2019-01-18T02:45:09.434Z,0.40
2019-01-18T02:47:38.000Z,0.40
2019-01-18T02:50:08.902Z,0.40
2019-01-18T02:52:37.422Z,0.40
2019-01-18T02:55:08.110Z,0.40
2019-01-18T02:57:36.743Z,0.40
2019-01-18T03:00:08.282Z,0.50
2019-01-18T03:02:36.914Z,0.50
2019-01-18T03:05:08.247Z,0.40
2019-01-18T03:07:36.810Z,0.40
2019-01-18T03:10:11.066Z,0.40
2019-01-18T03:12:39.702Z,0.40
2019-01-18T03:15:09.077Z,0.40
2019-01-18T03:17:37.643Z,0.30
2019-01-18T03:20:09.286Z,0.30
2019-01-18T03:22:37.847Z,0.30
2019-01-18T03:25:09.769Z,0.30
2019-01-18T03:27:38.338Z,0.30
2019-01-18T03:30:18.240Z,0.20
2019-01-18T03:32:40.153Z,0.20
2019-01-18T03:35:10.532Z,0.20
2019-01-18T03:37:39.093Z,0.20
2019-01-18T03:40:13.306Z,0.20
2019-01-18T03:42:42.040Z,0.20
2019-01-18T03:45:13.114Z,0.20
2019-01-18T03:47:41.725Z,0.20
2019-01-18T03:50:13.401Z,0.10
2019-01-18T03:52:41.935Z,0.10
2019-01-18T03:55:10.832Z,0.10
2019-01-18T03:57:39.378Z,0.10
2019-01-18T04:00:13.826Z,0.10
2019-01-18T04:02:42.363Z,0.10
2019-01-18T04:05:11.863Z,0.00
2019-01-18T04:07:40.472Z,0.00
2019-01-18T04:10:12.164Z,0.00
2019-01-18T04:12:40.747Z,0.00
2019-01-18T04:15:12.011Z,0.00
2019-01-18T04:17:40.614Z,0.00
2019-01-18T04:20:12.137Z,0.00
2019-01-18T04:22:40.683Z,-0.10
2019-01-18T04:25:12.513Z,-0.10
2019-01-18T04:27:41.068Z,-0.10
2019-01-18T04:30:12.433Z,-0.10
2019-01-18T04:32:41.133Z,0.00
2019-01-18T04:35:10.858Z,0.00
2019-01-18T04:37:39.719Z,0.00
2019-01-18T04:40:22.336Z,0.00
2019-01-18T04:42:50.943Z,0.00
2019-01-18T04:45:19.738Z,0.00
2019-01-18T04:47:48.502Z,0.00
2019-01-18T04:50:19.561Z,0.00
2019-01-18T04:52:48.100Z,0.00
2019-01-18T04:55:16.795Z,0.00
2019-01-18T04:57:45.338Z,-0.10
2019-01-18T05:00:31.016Z,-0.10
2019-01-18T05:02:59.787Z,-0.10
2019-01-18T05:05:28.413Z,-0.10
2019-01-18T05:07:56.882Z,-0.10
2019-01-18T05:10:27.395Z,-0.10
2019-01-18T05:12:55.994Z,-0.10
2019-01-18T05:15:26.800Z,-0.20
2019-01-18T05:17:55.339Z,-0.20
2019-01-18T05:20:23.902Z,-0.30
2019-01-18T05:22:52.452Z,-0.30
2019-01-18T05:25:21.089Z,-0.40
2019-01-18T05:27:49.634Z,-0.40
2019-01-18T05:30:20.901Z,-0.40
2019-01-18T05:32:49.437Z,-0.40
2019-01-18T05:35:18.150Z,-0.50
2019-01-18T05:37:46.751Z,-0.50
2019-01-18T05:40:17.255Z,-0.50
2019-01-18T05:42:46.133Z,-0.50
2019-01-18T05:45:19.498Z,-0.50
2019-01-18T05:47:47.969Z,-0.50
2019-01-18T05:50:19.146Z,-0.50
2019-01-18T05:52:47.696Z,-0.50
2019-01-18T05:55:16.233Z,-0.50
2019-01-18T05:57:45.021Z,-0.50
2019-01-18T06:00:21.099Z,-0.50
2019-01-18T06:02:49.688Z,-0.50
2019-01-18T06:05:19.513Z,-0.50
2019-01-18T06:07:48.147Z,-0.60
2019-01-18T06:10:16.690Z,-0.50
2019-01-18T06:12:45.249Z,-0.50
2019-01-18T06:15:13.935Z,-0.50
2019-01-18T06:17:42.491Z,-0.50
2019-01-18T06:20:13.743Z,-0.50
2019-01-18T06:22:42.306Z,-0.50
2019-01-18T06:25:10.998Z,-0.40
2019-01-18T06:27:39.639Z,-0.40
2019-01-18T06:30:18.369Z,-0.40
2019-01-18T06:32:47.097Z,-0.40
2019-01-18T06:35:15.952Z,-0.40
2019-01-18T06:37:44.881Z,-0.40
2019-01-18T06:40:18.288Z,-0.40
2019-01-18T06:42:46.861Z,-0.30
2019-01-18T06:45:20.425Z,-0.30
2019-01-18T06:47:49.000Z,-0.30
2019-01-18T06:50:18.881Z,-0.30
2019-01-18T06:52:47.519Z,-0.30
2019-01-18T06:55:19.071Z,-0.30
2019-01-18T06:57:47.705Z,-0.30
2019-01-18T07:00:24.974Z,-0.30
2019-01-18T07:02:53.541Z,-0.30
2019-01-18T07:05:22.084Z,-0.30
2019-01-18T07:07:50.653Z,-0.30
2019-01-18T07:10:21.430Z,-0.30
2019-01-18T07:12:50.000Z,-0.30
2019-01-18T07:15:18.610Z,-0.30
2019-01-18T07:17:47.250Z,-0.30
2019-01-18T07:20:17.625Z,-0.30
2019-01-18T07:22:46.442Z,-0.30
2019-01-18T07:25:23.045Z,-0.30
2019-01-18T07:27:51.682Z,-0.30
2019-01-18T07:30:23.290Z,-0.40
2019-01-18T07:32:51.860Z,-0.40
2019-01-18T07:35:20.535Z,-0.40
2019-01-18T07:37:49.245Z,-0.40
2019-01-18T07:40:17.790Z,-0.40
2019-01-18T07:42:46.349Z,-0.30
2019-01-18T07:45:23.846Z,-0.30
2019-01-18T07:47:52.416Z,-0.30
2019-01-18T07:50:21.016Z,-0.30
2019-01-18T07:52:49.749Z,-0.30
2019-01-18T07:55:18.213Z,-0.30
2019-01-18T07:57:46.784Z,-0.30
2019-01-18T08:00:26.134Z,-0.30
2019-01-18T08:02:54.700Z,-0.30
2019-01-18T08:05:25.053Z,-0.30
2019-01-18T08:07:53.749Z,-0.30
2019-01-18T08:10:23.658Z,-0.30
2019-01-18T08:12:52.494Z,-0.30
2019-01-18T08:15:23.173Z,-0.30
2019-01-18T08:17:51.876Z,-0.40
2019-01-18T08:20:22.549Z,-0.40
2019-01-18T08:22:51.180Z,-0.40
2019-01-18T08:25:19.732Z,-0.40
2019-01-18T08:27:48.359Z,-0.40
2019-01-18T08:30:19.408Z,-0.30
2019-01-18T08:32:48.165Z,-0.30
2019-01-18T08:35:18.451Z,-0.20
2019-01-18T08:37:47.112Z,-0.20
2019-01-18T08:40:18.189Z,-0.10
2019-01-18T08:42:46.898Z,-0.10
2019-01-18T08:45:21.012Z,0.00
2019-01-18T08:47:49.567Z,0.00
2019-01-18T08:50:19.715Z,0.00
2019-01-18T08:52:48.362Z,0.00
2019-01-18T08:55:16.875Z,0.10
2019-01-18T08:57:45.434Z,0.10
2019-01-18T09:00:19.707Z,0.10
2019-01-18T09:02:48.362Z,0.20
2019-01-18T09:05:19.679Z,0.20
2019-01-18T09:07:48.226Z,0.20
2019-01-18T09:10:19.406Z,0.20
2019-01-18T09:12:47.963Z,0.20
2019-01-18T09:15:16.567Z,0.20
2019-01-18T09:17:45.266Z,0.30
2019-01-18T09:20:21.658Z,0.30
2019-01-18T09:22:50.288Z,0.40
2019-01-18T09:25:18.893Z,0.40
2019-01-18T09:27:47.517Z,0.40
2019-01-18T09:30:23.898Z,0.50
2019-01-18T09:32:52.593Z,0.50
2019-01-18T09:35:23.270Z,0.60
2019-01-18T09:37:51.835Z,0.60
2019-01-18T09:40:25.690Z,0.60
2019-01-18T09:42:54.313Z,0.60
2019-01-18T09:45:22.782Z,0.60
2019-01-18T09:47:51.406Z,0.60
2019-01-18T09:50:25.018Z,0.60
2019-01-18T09:52:53.889Z,0.60
2019-01-18T09:55:22.526Z,0.70
2019-01-18T09:57:51.284Z,0.70
2019-01-18T10:00:22.385Z,0.80
2019-01-18T10:02:51.094Z,0.80
2019-01-18T10:05:20.294Z,0.90
2019-01-18T10:07:48.836Z,1.00
2019-01-18T10:10:19.892Z,1.00
2019-01-18T10:12:49.100Z,1.00
2019-01-18T10:15:26.473Z,1.10
2019-01-18T10:18:00.637Z,1.10
2019-01-18T10:20:25.283Z,1.10
2019-01-18T10:22:53.894Z,1.20
2019-01-18T10:25:22.449Z,1.30
2019-01-18T10:27:50.913Z,1.30
2019-01-18T10:30:25.810Z,1.40
2019-01-18T10:32:54.341Z,1.40
2019-01-18T10:35:24.337Z,1.50
2019-01-18T10:37:52.938Z,1.50
2019-01-18T10:40:21.669Z,1.60
2019-01-18T10:42:50.837Z,1.60
2019-01-18T10:45:20.158Z,1.60
2019-01-18T10:47:49.833Z,1.70
2019-01-18T10:50:20.357Z,1.70
2019-01-18T10:52:48.970Z,1.80
2019-01-18T10:55:17.598Z,1.90
2019-01-18T10:57:46.274Z,1.90
2019-01-18T11:00:21.822Z,2.00
2019-01-18T11:02:51.449Z,2.00
2019-01-18T11:05:20.659Z,2.10
2019-01-18T11:07:49.189Z,2.20
2019-01-18T11:10:17.890Z,2.20
2019-01-18T11:12:46.489Z,2.20
2019-01-18T11:15:23.203Z,2.30
2019-01-18T11:17:51.750Z,2.40
2019-01-18T11:20:28.675Z,2.40
2019-01-18T11:22:58.777Z,2.50
2019-01-18T11:25:31.754Z,2.60
2019-01-18T11:27:57.589Z,2.60
2019-01-18T11:30:26.073Z,2.70
2019-01-18T11:32:54.606Z,2.80
2019-01-18T11:35:23.233Z,2.80
2019-01-18T11:37:51.770Z,2.80
2019-01-18T11:40:22.297Z,2.80
2019-01-18T11:42:50.825Z,2.80
2019-01-18T11:45:19.622Z,2.70
2019-01-18T11:47:48.224Z,2.80
2019-01-18T11:50:21.978Z,2.80
2019-01-18T11:52:50.517Z,2.80
2019-01-18T11:55:19.154Z,2.80
2019-01-18T11:57:47.679Z,2.80
2019-01-18T12:00:21.565Z,2.80
2019-01-18T12:02:50.464Z,2.80
2019-01-18T12:05:19.085Z,2.80
2019-01-18T12:07:48.063Z,2.80
2019-01-18T12:10:18.943Z,2.80
2019-01-18T12:12:47.709Z,2.80
2019-01-18T12:15:16.316Z,2.90
2019-01-18T12:17:44.933Z,3.00
2019-01-18T12:20:28.169Z,3.10
2019-01-18T12:22:56.790Z,3.20
2019-01-18T12:25:25.388Z,3.40
2019-01-18T12:27:53.958Z,3.50
2019-01-18T12:30:27.681Z,3.60
2019-01-18T12:32:56.246Z,3.60
2019-01-18T12:35:24.787Z,3.60
2019-01-18T12:37:53.417Z,3.60
2019-01-18T12:40:22.029Z,3.70
2019-01-18T12:42:50.663Z,3.70
2019-01-18T12:45:20.946Z,3.80
2019-01-18T12:47:49.511Z,3.80
2019-01-18T12:50:21.048Z,3.90
2019-01-18T12:52:49.610Z,3.90
2019-01-18T12:55:18.150Z,3.90
2019-01-18T12:57:46.783Z,3.90
2019-01-18T13:00:18.228Z,4.00
2019-01-18T13:02:46.853Z,4.00
2019-01-18T13:05:23.970Z,4.00
2019-01-18T13:07:52.585Z,3.90
2019-01-18T13:10:21.133Z,3.90
2019-01-18T13:12:49.693Z,3.90
2019-01-18T13:15:26.992Z,3.90
2019-01-18T13:17:55.550Z,3.90
2019-01-18T13:20:24.085Z,3.80
2019-01-18T13:22:52.722Z,3.70
2019-01-18T13:25:21.254Z,3.60
2019-01-18T13:27:49.814Z,3.60
2019-01-18T13:30:19.293Z,3.50
2019-01-18T13:32:48.026Z,3.40
2019-01-18T13:35:16.650Z,3.40
2019-01-18T13:37:45.282Z,3.40
2019-01-18T13:40:23.296Z,3.40
2019-01-18T13:42:51.858Z,3.40
2019-01-18T13:45:24.259Z,3.40
2019-01-18T13:47:50.866Z,3.40
2019-01-18T13:50:20.048Z,3.40
2019-01-18T13:52:48.779Z,3.40
2019-01-18T13:55:25.760Z,3.40
2019-01-18T13:57:54.386Z,3.40
2019-01-18T14:00:23.069Z,3.40
2019-01-18T14:02:51.689Z,3.40
2019-01-18T14:05:20.321Z,3.40
2019-01-18T14:07:53.274Z,3.40
2019-01-18T14:10:27.978Z,3.40
2019-01-18T14:12:56.600Z,3.40
2019-01-18T14:15:26.078Z,3.40
2019-01-18T14:17:54.705Z,3.50
2019-01-18T14:20:25.655Z,3.50
2019-01-18T14:22:54.586Z,3.50
2019-01-18T14:25:23.130Z,3.50
2019-01-18T14:27:51.685Z,3.60
2019-01-18T14:30:25.215Z,3.60
2019-01-18T14:32:55.513Z,3.60
2019-01-18T14:35:24.571Z,3.60
2019-01-18T14:37:53.371Z,3.60
2019-01-18T14:40:22.445Z,3.70
2019-01-18T14:42:52.448Z,3.70
2019-01-18T14:45:26.592Z,3.60
2019-01-18T14:47:55.310Z,3.60
2019-01-18T14:50:23.842Z,3.60
2019-01-18T14:52:52.473Z,3.60
2019-01-18T14:55:21.176Z,3.60
2019-01-18T14:57:49.739Z,3.60
2019-01-18T15:00:21.087Z,3.50
2019-01-18T15:02:49.718Z,3.50
2019-01-18T15:05:18.258Z,3.50
2019-01-18T15:07:46.857Z,3.40
2019-01-18T15:10:20.592Z,3.40
2019-01-18T15:12:51.390Z,3.40
2019-01-18T15:15:19.994Z,3.40
2019-01-18T15:17:50.077Z,3.30
2019-01-18T15:20:21.018Z,3.30
2019-01-18T15:22:49.621Z,3.30
2019-01-18T15:25:18.254Z,3.20
2019-01-18T15:27:46.856Z,3.20
2019-01-18T15:30:18.332Z,3.20
2019-01-18T15:32:46.930Z,3.20
2019-01-18T15:35:18.030Z,3.20
2019-01-18T15:37:46.638Z,3.10
2019-01-18T15:40:20.542Z,3.10
2019-01-18T15:42:49.153Z,3.10
2019-01-18T15:45:17.790Z,3.10
2019-01-18T15:47:46.330Z,3.10
2019-01-18T15:50:23.307Z,3.10
2019-01-18T15:52:51.920Z,3.00
2019-01-18T15:55:20.544Z,3.00
2019-01-18T15:57:49.154Z,3.00
2019-01-18T16:00:29.751Z,3.00
2019-01-18T16:02:58.430Z,3.00
2019-01-18T16:05:26.996Z,3.00
2019-01-18T16:07:55.680Z,2.90
2019-01-18T16:10:25.173Z,2.90
2019-01-18T16:12:54.122Z,2.90
2019-01-18T16:15:34.478Z,2.90
2019-01-18T16:18:05.201Z,2.90
2019-01-18T16:20:33.766Z,2.90
2019-01-18T16:23:03.087Z,2.80
2019-01-18T16:25:32.298Z,2.80
2019-01-18T16:28:00.906Z,2.80
2019-01-18T16:30:29.470Z,2.80
2019-01-18T16:32:58.173Z,2.80
2019-01-18T16:35:26.869Z,2.70
2019-01-18T16:37:55.746Z,2.70
2019-01-18T16:40:27.385Z,2.60
2019-01-18T16:42:59.132Z,2.60
2019-01-18T16:45:27.694Z,2.60
2019-01-18T16:47:56.231Z,2.60
2019-01-18T16:50:24.858Z,2.60
2019-01-18T16:52:53.474Z,2.50
2019-01-18T16:55:22.041Z,2.50
2019-01-18T16:57:50.647Z,2.50
2019-01-18T17:00:28.215Z,2.50
2019-01-18T17:02:56.749Z,2.50
2019-01-18T17:05:25.370Z,2.50
2019-01-18T17:07:53.917Z,2.40
2019-01-18T17:10:22.541Z,2.40
2019-01-18T17:12:51.285Z,2.40
2019-01-18T17:15:19.846Z,2.40
2019-01-18T17:17:48.382Z,2.40
2019-01-18T17:20:28.858Z,2.40
2019-01-18T17:22:57.445Z,2.40
2019-01-18T17:25:25.997Z,2.40
2019-01-18T17:27:54.556Z,2.40
2019-01-18T17:30:23.383Z,2.40
2019-01-18T17:32:51.920Z,2.40
2019-01-18T17:35:50.165Z,2.30
2019-01-18T17:38:42.666Z,2.30
2019-01-18T17:41:32.262Z,2.30
2019-01-18T17:44:21.519Z,2.30
2019-01-18T17:47:07.809Z,2.30
2019-01-18T17:49:48.021Z,2.20
2019-01-18T17:52:19.654Z,2.20
2019-01-18T17:54:53.911Z,2.20
2019-01-18T17:57:40.334Z,2.20
2019-01-18T18:00:17.437Z,2.20
2019-01-18T18:03:00.986Z,2.20
2019-01-18T18:06:00.921Z,2.20
2019-01-18T18:08:38.041Z,2.20
2019-01-18T18:11:21.970Z,2.20
2019-01-18T18:13:53.951Z,2.20
2019-01-18T18:17:00.213Z,2.20
2019-01-18T18:19:31.745Z,2.20
2019-01-18T18:22:22.786Z,2.10
2019-01-18T18:25:03.547Z,2.10
2019-01-18T18:27:52.863Z,2.10
2019-01-18T18:30:36.442Z,2.20
2019-01-18T18:33:39.395Z,2.10
2019-01-18T18:36:19.591Z,2.10
2019-01-18T18:39:00.010Z,2.10
2019-01-18T18:41:40.186Z,2.10
2019-01-18T18:44:32.690Z,2.10
2019-01-18T18:47:20.418Z,2.10
2019-01-18T18:50:24.831Z,2.00
2019-01-18T18:53:20.332Z,2.00
2019-01-18T18:55:55.732Z,2.10
2019-01-18T18:58:45.210Z,2.00
2019-01-18T19:01:31.473Z,2.00
2019-01-18T19:04:08.885Z,2.00
2019-01-18T19:06:43.134Z,2.00
2019-01-18T19:09:17.462Z,2.00
2019-01-18T19:12:00.985Z,1.90
2019-01-18T19:14:47.584Z,1.90
2019-01-18T19:17:40.321Z,1.90
2019-01-18T19:20:17.765Z,1.80
2019-01-18T19:23:01.719Z,1.80
2019-01-18T19:25:36.795Z,1.80
2019-01-18T19:28:20.539Z,1.80
2019-01-18T19:31:08.666Z,1.70
2019-01-18T19:33:55.693Z,1.70
2019-01-18T19:36:39.196Z,1.70
2019-01-18T19:39:16.412Z,1.70
2019-01-18T19:41:57.224Z,1.70
2019-01-18T19:44:35.026Z,1.70
2019-01-18T19:47:28.112Z,1.70
2019-01-18T19:50:02.506Z,1.70
2019-01-18T19:52:43.166Z,1.70
2019-01-18T19:55:46.781Z,1.70
2019-01-18T19:58:33.177Z,1.70
2019-01-18T20:01:14.656Z,1.70
2019-01-18T20:03:46.765Z,1.70
2019-01-18T20:06:34.598Z,1.60
2019-01-18T20:09:28.899Z,1.60
2019-01-18T20:12:33.578Z,1.60
2019-01-18T20:15:20.456Z,1.50
2019-01-18T20:18:07.198Z,1.60
2019-01-18T20:21:01.747Z,1.50
2019-01-18T20:23:46.117Z,1.50
2019-01-18T20:26:27.159Z,1.60
2019-01-18T20:29:02.226Z,1.60
2019-01-18T20:32:02.583Z,1.60
2019-01-18T20:35:02.294Z,1.60
2019-01-18T20:37:33.841Z,1.60
2019-01-18T20:40:11.218Z,1.60
2019-01-18T20:43:11.861Z,1.60
2019-01-18T20:46:01.488Z,1.60
2019-01-18T20:48:51.506Z,1.60
2019-01-18T20:51:29.547Z,1.60
2019-01-18T20:54:13.197Z,1.60
2019-01-18T20:56:50.343Z,1.70
2019-01-18T20:59:24.503Z,1.70
2019-01-18T21:02:14.022Z,1.70
2019-01-18T21:05:17.082Z,1.70
2019-01-18T21:08:00.106Z,1.60
2019-01-18T21:10:31.889Z,1.60
2019-01-18T21:13:15.098Z,1.60
2019-01-18T21:15:47.114Z,1.60
2019-01-18T21:18:36.698Z,1.50
2019-01-18T21:21:20.170Z,1.50
2019-01-18T21:24:00.731Z,1.40
2019-01-18T21:26:50.331Z,1.40
2019-01-18T21:29:33.745Z,1.30
2019-01-18T21:32:29.134Z,1.30
2019-01-18T21:35:06.318Z,1.30
2019-01-18T21:37:52.615Z,1.20
2019-01-18T21:40:32.835Z,1.20
2019-01-18T21:43:16.098Z,1.20
2019-01-18T21:46:02.682Z,1.10
2019-01-18T21:49:06.968Z,1.10
2019-01-18T21:51:44.311Z,1.00
2019-01-18T21:54:42.338Z,0.90
2019-01-18T21:57:37.753Z,0.90
2019-01-18T22:00:21.445Z,0.80
2019-01-18T22:03:02.057Z,0.80
2019-01-18T22:06:00.494Z,0.70
2019-01-18T22:08:34.855Z,0.70
2019-01-18T22:11:09.253Z,0.70
2019-01-18T22:13:48.982Z,0.60
2019-01-18T22:16:32.078Z,0.60
2019-01-18T22:19:21.307Z,0.60
2019-01-18T22:21:55.761Z,0.60
2019-01-18T22:24:46.885Z,0.60
2019-01-18T22:27:30.027Z,0.50
2019-01-18T22:30:10.313Z,0.50
2019-01-18T22:32:44.682Z,0.50
2019-01-18T22:35:16.299Z,0.50
2019-01-18T22:38:14.902Z,0.40
2019-01-18T22:40:58.446Z,0.40
2019-01-18T22:43:30.158Z,0.40
2019-01-18T22:46:04.577Z,0.30
2019-01-18T22:48:48.076Z,0.30
2019-01-18T22:51:42.069Z,0.30
2019-01-18T22:54:31.599Z,0.30
2019-01-18T22:57:15.050Z,0.30
2019-01-18T22:59:51.787Z,0.20
2019-01-18T23:02:48.721Z,0.20
2019-01-18T23:05:29.019Z,0.20
2019-01-18T23:08:03.100Z,0.20
2019-01-18T23:10:37.369Z,0.20
2019-01-18T23:13:11.784Z,0.10
2019-01-18T23:16:11.841Z,0.10
2019-01-18T23:18:43.950Z,0.10
2019-01-18T23:21:36.186Z,0.10
2019-01-18T23:24:13.293Z,0.10
2019-01-18T23:26:53.542Z,0.10
2019-01-18T23:29:27.702Z,0.10
2019-01-18T23:32:01.793Z,0.00
2019-01-18T23:34:39.371Z,0.00
2019-01-18T23:37:10.990Z,0.00
2019-01-18T23:39:58.938Z,-0.10
2019-01-18T23:42:32.976Z,-0.10
2019-01-18T23:45:28.696Z,-0.10
2019-01-18T23:48:15.379Z,-0.10
2019-01-18T23:50:49.695Z,-0.10
2019-01-18T23:53:44.495Z,-0.20
2019-01-18T23:56:16.518Z,-0.20
2019-01-18T23:58:48.129Z,-0.20
